Time,TemperatureF,DewpointF,PressureIn,WindDirection,WindDirectionDegrees,WindSpeedMPH,WindSpeedGustMPH,Humidity,HourlyPrecipIn,Conditions,Clouds,dailyrainin,SoftwareType,DateUTC
2013-04-28 00:01:00,62.0,22.0,29.86,West,261,0.0,0.0,21,0.00,,,0.00,,2013-04-28 06:01:00,
2013-04-28 00:12:00,62.0,22.0,29.86,West,261,0.0,0.0,21,0.00,,,0.00,,2013-04-28 06:12:00,
2013-04-28 00:21:00,60.0,25.0,29.86,West,261,0.0,0.0,26,0.00,,,0.00,,2013-04-28 06:21:00,
2013-04-28 00:32:00,59.0,21.0,29.86,West,260,0.0,1.0,23,0.00,,,0.00,,2013-04-28 06:32:00,
2013-04-28 00:42:00,59.0,21.0,29.86,West,260,0.0,1.0,23,0.00,,,0.00,,2013-04-28 06:42:00,
2013-04-28 00:51:00,60.0,20.0,29.85,West,260,0.0,1.0,21,0.00,,,0.00,,2013-04-28 06:51:00,
2013-04-28 01:01:00,60.0,20.0,29.85,West,261,0.0,0.0,21,0.00,,,0.00,,2013-04-28 07:01:00,
2013-04-28 01:11:00,60.0,20.0,29.85,West,261,0.0,0.0,21,0.00,,,0.00,,2013-04-28 07:11:00,
2013-04-28 01:21:00,59.0,20.0,29.85,West,260,0.0,1.0,22,0.00,,,0.00,,2013-04-28 07:21:00,
2013-04-28 01:32:00,58.0,19.0,29.85,West,261,0.0,1.0,22,0.00,,,0.00,,2013-04-28 07:32:00,
2013-04-28 01:42:00,58.0,19.0,29.85,West,261,0.0,1.0,22,0.00,,,0.00,,2013-04-28 07:42:00,
2013-04-28 01:52:00,55.0,20.0,29.85,West,261,0.0,1.0,25,0.00,,,0.00,,2013-04-28 07:52:00,
2013-04-28 02:02:00,54.0,23.0,29.85,West,261,0.0,0.0,30,0.00,,,0.00,,2013-04-28 08:02:00,
2013-04-28 02:11:00,54.0,23.0,29.85,West,261,0.0,0.0,30,0.00,,,0.00,,2013-04-28 08:11:00,
2013-04-28 02:21:00,53.0,22.0,29.85,West,260,0.0,1.0,29,0.00,,,0.00,,2013-04-28 08:21:00,
2013-04-28 02:32:00,53.0,22.0,29.85,West,261,0.0,0.0,30,0.00,,,0.00,,2013-04-28 08:32:00,
2013-04-28 02:42:00,53.0,22.0,29.85,West,261,0.0,0.0,30,0.00,,,0.00,,2013-04-28 08:42:00,
2013-04-28 02:52:00,53.0,22.0,29.85,West,261,0.0,1.0,29,0.00,,,0.00,,2013-04-28 08:52:00,
2013-04-28 03:01:00,54.0,21.0,29.84,West,261,0.0,1.0,27,0.00,,,0.00,,2013-04-28 09:01:00,
2013-04-28 03:11:00,54.0,21.0,29.84,West,261,0.0,1.0,27,0.00,,,0.00,,2013-04-28 09:11:00,
2013-04-28 03:21:00,53.0,21.0,29.84,West,261,0.0,1.0,28,0.00,,,0.00,,2013-04-28 09:21:00,
2013-04-28 03:33:00,51.0,20.0,29.84,West,261,0.0,0.0,29,0.00,,,0.00,,2013-04-28 09:33:00,
2013-04-28 03:42:00,51.0,20.0,29.84,West,261,0.0,0.0,29,0.00,,,0.00,,2013-04-28 09:42:00,
2013-04-28 03:53:00,50.0,21.0,29.84,West,261,0.0,1.0,32,0.00,,,0.00,,2013-04-28 09:53:00,
2013-04-28 04:03:00,50.0,23.0,29.84,West,261,0.0,1.0,34,0.00,,,0.00,,2013-04-28 10:03:00,
2013-04-28 04:12:00,50.0,23.0,29.84,West,261,0.0,1.0,34,0.00,,,0.00,,2013-04-28 10:12:00,
2013-04-28 04:22:00,49.0,23.0,29.84,West,261,0.0,0.0,35,0.00,,,0.00,,2013-04-28 10:22:00,
2013-04-28 04:32:00,50.0,21.0,29.84,West,261,0.0,1.0,32,0.00,,,0.00,,2013-04-28 10:32:00,
2013-04-28 04:42:00,50.0,21.0,29.84,West,261,0.0,1.0,32,0.00,,,0.00,,2013-04-28 10:42:00,
2013-04-28 04:52:00,52.0,22.0,29.84,West,261,0.0,1.0,30,0.00,,,0.00,,2013-04-28 10:52:00,
2013-04-28 05:02:00,51.0,20.0,29.84,West,261,0.0,0.0,29,0.00,,,0.00,,2013-04-28 11:02:00,
2013-04-28 05:11:00,51.0,20.0,29.84,West,261,0.0,0.0,29,0.00,,,0.00,,2013-04-28 11:11:00,
2013-04-28 05:22:00,50.0,18.0,29.84,West,261,0.0,3.0,28,0.00,,,0.00,,2013-04-28 11:22:00,
2013-04-28 05:32:00,52.0,19.0,29.85,West,276,0.0,5.0,27,0.00,,,0.00,,2013-04-28 11:32:00,
2013-04-28 05:42:00,52.0,19.0,29.85,West,276,0.0,5.0,27,0.00,,,0.00,,2013-04-28 11:42:00,
2013-04-28 05:52:00,52.0,19.0,29.86,WNW,283,0.0,5.0,27,0.00,,,0.00,,2013-04-28 11:52:00,
2013-04-28 06:02:00,52.0,19.0,29.86,WNW,283,0.0,1.0,27,0.00,,,0.00,,2013-04-28 12:02:00,
2013-04-28 06:12:00,52.0,19.0,29.86,WNW,283,0.0,1.0,27,0.00,,,0.00,,2013-04-28 12:12:00,
2013-04-28 06:21:00,51.0,18.0,29.87,WNW,283,0.0,1.0,27,0.00,,,0.00,,2013-04-28 12:21:00,
2013-04-28 06:32:00,50.0,16.0,29.88,WNW,283,0.0,2.0,26,0.00,,,0.00,,2013-04-28 12:32:00,
2013-04-28 06:42:00,50.0,16.0,29.88,WNW,283,0.0,2.0,26,0.00,,,0.00,,2013-04-28 12:42:00,
2013-04-28 06:52:00,49.0,16.0,29.88,WNW,283,0.0,2.0,27,0.00,,,0.00,,2013-04-28 12:52:00,
2013-04-28 07:02:00,49.0,16.0,29.89,WNW,283,0.0,2.0,27,0.00,,,0.00,,2013-04-28 13:02:00,
2013-04-28 07:11:00,49.0,16.0,29.89,WNW,283,0.0,2.0,27,0.00,,,0.00,,2013-04-28 13:11:00,
2013-04-28 07:21:00,49.0,17.0,29.89,WNW,283,0.0,1.0,28,0.00,,,0.00,,2013-04-28 13:21:00,
2013-04-28 07:32:00,50.0,17.0,29.90,WNW,288,0.0,4.0,27,0.00,,,0.00,,2013-04-28 13:32:00,
2013-04-28 07:42:00,50.0,17.0,29.90,WNW,288,0.0,4.0,27,0.00,,,0.00,,2013-04-28 13:42:00,
2013-04-28 07:52:00,52.0,20.0,29.90,WNW,288,0.0,0.0,28,0.00,,,0.00,,2013-04-28 13:52:00,
2013-04-28 08:02:00,54.0,22.0,29.90,WNW,288,0.0,1.0,28,0.00,,,0.00,,2013-04-28 14:02:00,
2013-04-28 08:11:00,54.0,22.0,29.90,WNW,288,0.0,1.0,28,0.00,,,0.00,,2013-04-28 14:11:00,
2013-04-28 08:22:00,55.0,24.0,29.90,WNW,288,0.0,0.0,30,0.00,,,0.00,,2013-04-28 14:22:00,
2013-04-28 08:32:00,58.0,22.0,29.90,WNW,288,0.0,1.0,25,0.00,,,0.00,,2013-04-28 14:32:00,
2013-04-28 08:42:00,58.0,22.0,29.90,WNW,288,0.0,1.0,25,0.00,,,0.00,,2013-04-28 14:42:00,
2013-04-28 08:52:00,60.0,25.0,29.90,WNW,287,0.0,1.0,26,0.00,,,0.00,,2013-04-28 14:52:00,
2013-04-28 09:02:00,61.0,24.0,29.90,WNW,287,0.0,3.0,24,0.00,,,0.00,,2013-04-28 15:02:00,
2013-04-28 09:12:00,61.0,24.0,29.90,WNW,287,0.0,3.0,24,0.00,,,0.00,,2013-04-28 15:12:00,
2013-04-28 09:21:00,63.0,25.0,29.90,WNW,288,0.0,2.0,23,0.00,,,0.00,,2013-04-28 15:21:00,
2013-04-28 09:32:00,64.0,24.0,29.90,WNW,288,0.0,3.0,22,0.00,,,0.00,,2013-04-28 15:32:00,
2013-04-28 09:42:00,64.0,24.0,29.90,WNW,288,0.0,3.0,22,0.00,,,0.00,,2013-04-28 15:42:00,
2013-04-28 09:53:00,67.0,26.0,29.90,NW,308,1.0,7.0,21,0.00,,,0.00,,2013-04-28 15:53:00,
2013-04-28 10:03:00,69.0,27.0,29.89,NW,311,0.0,4.0,21,0.00,,,0.00,,2013-04-28 16:03:00,
2013-04-28 10:13:00,69.0,27.0,29.89,NW,311,0.0,4.0,21,0.00,,,0.00,,2013-04-28 16:13:00,
2013-04-28 10:23:00,71.0,30.0,29.89,NW,314,1.0,4.0,22,0.00,,,0.00,,2013-04-28 16:23:00,
2013-04-28 10:33:00,73.0,31.0,29.89,NW,313,0.0,4.0,21,0.00,,,0.00,,2013-04-28 16:33:00,
2013-04-28 10:42:00,73.0,31.0,29.89,NW,313,0.0,4.0,21,0.00,,,0.00,,2013-04-28 16:42:00,
2013-04-28 10:52:00,75.0,34.0,29.88,NW,314,0.0,2.0,22,0.00,,,0.00,,2013-04-28 16:52:00,
2013-04-28 11:02:00,76.0,38.0,29.88,WNW,290,0.0,5.0,25,0.00,,,0.00,,2013-04-28 17:02:00,
2013-04-28 11:12:00,76.0,38.0,29.88,WNW,290,0.0,5.0,25,0.00,,,0.00,,2013-04-28 17:12:00,
2013-04-28 11:22:00,77.0,39.0,29.87,WNW,283,1.0,5.0,26,0.00,,,0.00,,2013-04-28 17:22:00,
2013-04-28 11:32:00,78.0,38.0,29.87,West,264,1.0,6.0,24,0.00,,,0.00,,2013-04-28 17:32:00,
2013-04-28 11:42:00,78.0,38.0,29.87,West,264,1.0,6.0,24,0.00,,,0.00,,2013-04-28 17:42:00,
2013-04-28 11:51:00,80.0,37.0,29.86,WSW,257,0.0,5.0,21,0.00,,,0.00,,2013-04-28 17:51:00,
2013-04-28 12:02:00,80.0,37.0,29.86,WSW,245,0.0,5.0,21,0.00,,,0.00,,2013-04-28 18:02:00,
2013-04-28 12:12:00,80.0,37.0,29.86,WSW,245,0.0,5.0,21,0.00,,,0.00,,2013-04-28 18:12:00,
2013-04-28 12:22:00,80.0,35.0,29.85,SW,225,2.0,6.0,20,0.00,,,0.00,,2013-04-28 18:22:00,
2013-04-28 12:32:00,81.0,37.0,29.84,SW,221,3.0,9.0,21,0.00,,,0.00,,2013-04-28 18:32:00,
2013-04-28 12:42:00,81.0,37.0,29.84,SW,221,3.0,9.0,21,0.00,,,0.00,,2013-04-28 18:42:00,
2013-04-28 12:52:00,83.0,36.0,29.83,SSW,205,1.0,5.0,19,0.00,,,0.00,,2013-04-28 18:52:00,
2013-04-28 13:02:00,83.0,35.0,29.83,South,175,0.0,7.0,18,0.00,,,0.00,,2013-04-28 19:02:00,
2013-04-28 13:11:00,83.0,35.0,29.83,South,175,0.0,7.0,18,0.00,,,0.00,,2013-04-28 19:11:00,
2013-04-28 13:21:00,83.0,34.0,29.82,South,184,1.0,4.0,17,0.00,,,0.00,,2013-04-28 19:21:00,
2013-04-28 13:32:00,86.0,33.0,29.81,SSE,159,2.0,6.0,15,0.00,,,0.00,,2013-04-28 19:32:00,
2013-04-28 13:42:00,86.0,33.0,29.81,SSE,159,2.0,6.0,15,0.00,,,0.00,,2013-04-28 19:42:00,
2013-04-28 13:52:00,86.0,33.0,29.80,SSE,150,1.0,5.0,15,0.00,,,0.00,,2013-04-28 19:52:00,
2013-04-28 14:02:00,86.0,29.0,29.79,South,174,1.0,7.0,13,0.00,,,0.00,,2013-04-28 20:02:00,
2013-04-28 14:12:00,86.0,29.0,29.79,South,174,1.0,7.0,13,0.00,,,0.00,,2013-04-28 20:12:00,
2013-04-28 14:22:00,85.0,32.0,29.78,SSW,211,3.0,8.0,15,0.00,,,0.00,,2013-04-28 20:22:00,
2013-04-28 14:32:00,86.0,29.0,29.78,SSW,210,0.0,8.0,13,0.00,,,0.00,,2013-04-28 20:32:00,
2013-04-28 14:42:00,86.0,29.0,29.78,SSW,210,0.0,8.0,13,0.00,,,0.00,,2013-04-28 20:42:00,
2013-04-28 14:52:00,85.0,30.0,29.78,WSW,239,3.0,10.0,14,0.00,,,0.00,,2013-04-28 20:52:00,
2013-04-28 15:01:00,85.0,30.0,29.76,North,1,2.0,8.0,14,0.00,,,0.00,,2013-04-28 21:01:00,
2013-04-28 15:11:00,85.0,30.0,29.76,North,1,2.0,8.0,14,0.00,,,0.00,,2013-04-28 21:11:00,
2013-04-28 15:22:00,88.0,31.0,29.75,SW,229,3.0,10.0,13,0.00,,,0.00,,2013-04-28 21:22:00,
2013-04-28 15:33:00,89.0,30.0,29.74,South,176,2.0,7.0,12,0.00,,,0.00,,2013-04-28 21:33:00,
2013-04-28 15:42:00,89.0,30.0,29.74,South,176,2.0,7.0,12,0.00,,,0.00,,2013-04-28 21:42:00,
2013-04-28 15:52:00,87.0,28.0,29.73,SW,214,1.0,6.0,12,0.00,,,0.00,,2013-04-28 21:52:00,
2013-04-28 16:03:00,86.0,29.0,29.72,SSW,200,0.0,4.0,13,0.00,,,0.00,,2013-04-28 22:03:00,
2013-04-28 16:12:00,86.0,29.0,29.72,SSW,200,0.0,4.0,13,0.00,,,0.00,,2013-04-28 22:12:00,
2013-04-28 16:22:00,87.0,28.0,29.71,SSW,194,1.0,11.0,12,0.00,,,0.00,,2013-04-28 22:22:00,
2013-04-28 16:33:00,88.0,29.0,29.70,SE,136,0.0,10.0,12,0.00,,,0.00,,2013-04-28 22:33:00,
2013-04-28 16:42:00,88.0,29.0,29.70,SE,136,0.0,10.0,12,0.00,,,0.00,,2013-04-28 22:42:00,
2013-04-28 16:52:00,87.0,28.0,29.70,NE,53,2.0,7.0,12,0.00,,,0.00,,2013-04-28 22:52:00,
2013-04-28 17:02:00,85.0,27.0,29.70,NNW,328,0.0,8.0,12,0.00,,,0.00,,2013-04-28 23:02:00,
2013-04-28 17:12:00,85.0,27.0,29.70,NNW,328,0.0,8.0,12,0.00,,,0.00,,2013-04-28 23:12:00,
2013-04-28 17:22:00,84.0,26.0,29.69,NNW,328,0.0,2.0,12,0.00,,,0.00,,2013-04-28 23:22:00,
2013-04-28 17:32:00,86.0,27.0,29.68,NE,45,0.0,4.0,12,0.00,,,0.00,,2013-04-28 23:32:00,
2013-04-28 17:42:00,86.0,27.0,29.68,NE,45,0.0,4.0,12,0.00,,,0.00,,2013-04-28 23:42:00,
2013-04-28 17:52:00,87.0,28.0,29.68,ENE,77,0.0,1.0,12,0.00,,,0.00,,2013-04-28 23:52:00,
2013-04-28 18:01:00,87.0,26.0,29.67,NE,55,0.0,4.0,11,0.00,,,0.00,,2013-04-29 00:01:00,
2013-04-28 18:11:00,87.0,26.0,29.67,NE,55,0.0,4.0,11,0.00,,,0.00,,2013-04-29 00:11:00,
2013-04-28 18:22:00,86.0,27.0,29.67,West,271,0.0,4.0,12,0.00,,,0.00,,2013-04-29 00:22:00,
2013-04-28 18:32:00,86.0,27.0,29.67,SW,222,0.0,5.0,12,0.00,,,0.00,,2013-04-29 00:32:00,
2013-04-28 18:42:00,86.0,27.0,29.67,SW,222,0.0,5.0,12,0.00,,,0.00,,2013-04-29 00:42:00,
2013-04-28 18:52:00,86.0,27.0,29.67,SW,230,1.0,5.0,12,0.00,,,0.00,,2013-04-29 00:52:00,
2013-04-28 19:01:00,85.0,29.0,29.66,WSW,245,0.0,6.0,13,0.00,,,0.00,,2013-04-29 01:01:00,
2013-04-28 19:12:00,85.0,27.0,29.66,WSW,243,0.0,1.0,12,0.00,,,0.00,,2013-04-29 01:12:00,
2013-04-28 19:21:00,85.0,27.0,29.66,WSW,243,0.0,1.0,12,0.00,,,0.00,,2013-04-29 01:21:00,
2013-04-28 19:32:00,83.0,27.0,29.66,WSW,242,0.0,3.0,13,0.00,,,0.00,,2013-04-29 01:32:00,
2013-04-28 19:42:00,83.0,27.0,29.66,WSW,242,0.0,3.0,13,0.00,,,0.00,,2013-04-29 01:42:00,
2013-04-28 19:52:00,81.0,27.0,29.66,WSW,240,0.0,2.0,14,0.00,,,0.00,,2013-04-29 01:52:00,
2013-04-28 20:02:00,79.0,27.0,29.66,WSW,240,0.0,1.0,15,0.00,,,0.00,,2013-04-29 02:02:00,
2013-04-28 20:11:00,79.0,27.0,29.66,WSW,240,0.0,1.0,15,0.00,,,0.00,,2013-04-29 02:11:00,
2013-04-28 20:21:00,77.0,27.0,29.66,WSW,240,0.0,0.0,16,0.00,,,0.00,,2013-04-29 02:21:00,
2013-04-28 20:32:00,74.0,26.0,29.67,WSW,242,0.0,0.0,17,0.00,,,0.00,,2013-04-29 02:32:00,
2013-04-28 20:42:00,74.0,26.0,29.67,WSW,242,0.0,0.0,17,0.00,,,0.00,,2013-04-29 02:42:00,
2013-04-28 20:51:00,72.0,25.0,29.67,WSW,241,0.0,0.0,17,0.00,,,0.00,,2013-04-29 02:51:00,
2013-04-28 21:01:00,71.0,28.0,29.67,WSW,241,0.0,0.0,20,0.00,,,0.00,,2013-04-29 03:01:00,
2013-04-28 21:12:00,71.0,28.0,29.67,WSW,241,0.0,0.0,20,0.00,,,0.00,,2013-04-29 03:12:00,
2013-04-28 21:21:00,71.0,25.0,29.68,WSW,241,0.0,0.0,18,0.00,,,0.00,,2013-04-29 03:21:00,
2013-04-28 21:33:00,70.0,23.0,29.68,WSW,242,0.0,0.0,17,0.00,,,0.00,,2013-04-29 03:33:00,
2013-04-28 21:42:00,70.0,23.0,29.68,WSW,242,0.0,0.0,17,0.00,,,0.00,,2013-04-29 03:42:00,
2013-04-28 21:52:00,69.0,22.0,29.69,WSW,242,0.0,1.0,17,0.00,,,0.00,,2013-04-29 03:52:00,
2013-04-28 22:03:00,69.0,25.0,29.70,WSW,242,0.0,0.0,19,0.00,,,0.00,,2013-04-29 04:03:00,
2013-04-28 22:13:00,69.0,25.0,29.70,WSW,242,0.0,0.0,19,0.00,,,0.00,,2013-04-29 04:13:00,
2013-04-28 22:23:00,69.0,24.0,29.70,WSW,241,0.0,1.0,18,0.00,,,0.00,,2013-04-29 04:23:00,
2013-04-28 22:33:00,68.0,24.0,29.70,WSW,241,0.0,0.0,19,0.00,,,0.00,,2013-04-29 04:33:00,
2013-04-28 22:43:00,68.0,24.0,29.70,WSW,241,0.0,0.0,19,0.00,,,0.00,,2013-04-29 04:43:00,
2013-04-28 22:52:00,67.0,23.0,29.71,WSW,241,0.0,1.0,19,0.00,,,0.00,,2013-04-29 04:52:00,
2013-04-28 23:02:00,66.0,21.0,29.71,WSW,241,0.0,0.0,18,0.00,,,0.00,,2013-04-29 05:02:00,
2013-04-28 23:12:00,66.0,21.0,29.71,WSW,241,0.0,0.0,18,0.00,,,0.00,,2013-04-29 05:12:00,
2013-04-28 23:22:00,64.0,23.0,29.70,WSW,241,0.0,0.0,21,0.00,,,0.00,,2013-04-29 05:22:00,
2013-04-28 23:32:00,63.0,25.0,29.71,WSW,240,0.0,0.0,23,0.00,,,0.00,,2013-04-29 05:32:00,
2013-04-28 23:42:00,63.0,25.0,29.71,WSW,240,0.0,0.0,23,0.00,,,0.00,,2013-04-29 05:42:00,
2013-04-28 23:52:00,62.0,25.0,29.71,WSW,240,0.0,0.0,24,0.00,,,0.00,,2013-04-29 05:52:00,